Time;durP1;ratioP1;P1;durP2;ratioP2;P2;SDS_P1;SDS_P2;PMS_P1;PMS_P2;Temp;Humidity;BMP_temperature;BMP_pressure;BME280_temperature;BME280_humidity;BME280_pressure;Samples;Min_cycle;Max_cycle;Signal;HPM_P1;HPM_P2
2023/08/26 00:01:54;;;;;;;17.30;10.82;;;;;;;11.50;86.43;99354.34;4930152;28;20047;-73
2023/08/26 00:04:21;;;;;;;17.92;11.85;;;;;;;11.50;86.48;99357.88;4937277;28;20050;-74
2023/08/26 00:06:46;;;;;;;21.75;11.30;;;;;;;11.50;85.96;99359.69;4889081;28;20057;-73
2023/08/26 00:09:11;;;;;;;18.65;11.63;;;;;;;11.47;86.34;99366.13;4921223;28;20501;-75
2023/08/26 00:11:36;;;;;;;26.15;11.75;;;;;;;11.45;86.21;99357.38;4933447;28;20038;-74
2023/08/26 00:14:03;;;;;;;22.20;12.25;;;;;;;11.44;86.37;99373.50;4920943;28;20202;-73
2023/08/26 00:16:28;;;;;;;17.15;11.25;;;;;;;11.40;86.15;99351.53;4906690;28;20053;-72
2023/08/26 00:18:54;;;;;;;18.75;10.70;;;;;;;11.41;86.38;99366.59;4944237;28;20054;-74
2023/08/26 00:21:21;;;;;;;19.60;12.05;;;;;;;11.39;86.70;99357.03;4944503;28;20386;-74
2023/08/26 00:23:47;;;;;;;17.05;11.18;;;;;;;11.34;86.76;99354.69;4934891;28;20383;-74
2023/08/26 00:26:12;;;;;;;19.38;10.98;;;;;;;11.34;86.67;99359.19;4940002;28;20042;-73
2023/08/26 00:28:38;;;;;;;25.38;12.07;;;;;;;11.30;86.83;99355.91;4939621;28;20050;-74
2023/08/26 00:31:05;;;;;;;21.85;12.23;;;;;;;11.26;87.10;99368.66;4909432;28;20382;-72
2023/08/26 00:33:31;;;;;;;22.98;10.88;;;;;;;11.24;86.93;99354.59;4939155;28;20053;-72
2023/08/26 00:35:56;;;;;;;23.83;11.90;;;;;;;11.21;86.72;99354.81;4938474;28;20050;-72
2023/08/26 00:38:22;;;;;;;19.98;12.07;;;;;;;11.21;87.18;99353.97;4912705;29;20166;-72
2023/08/26 00:40:48;;;;;;;20.58;10.55;;;;;;;11.18;87.27;99365.72;4932267;28;20053;-73
2023/08/26 00:43:13;;;;;;;19.63;12.30;;;;;;;11.17;87.55;99353.34;4936574;28;20520;-73
2023/08/26 00:45:43;;;;;;;25.88;12.50;;;;;;;11.18;87.81;99371.06;4934347;28;20030;-73
2023/08/26 00:48:11;;;;;;;31.27;12.55;;;;;;;11.17;87.87;99364.03;4903818;28;20058;-74
2023/08/26 00:50:37;;;;;;;24.63;12.05;;;;;;;11.15;87.58;99355.31;4906776;28;20058;-74
2023/08/26 00:53:02;;;;;;;24.85;12.77;;;;;;;11.14;87.43;99300.25;4928268;28;20050;-75
2023/08/26 00:55:28;;;;;;;23.17;13.45;;;;;;;11.14;87.75;99358.94;4957310;28;20413;-71
2023/08/26 00:57:55;;;;;;;21.27;11.30;;;;;;;11.16;87.64;99353.50;4928521;28;20061;-76
2023/08/26 01:00:21;;;;;;;32.55;13.45;;;;;;;11.14;87.46;99361.63;4936910;28;20421;-74
2023/08/26 01:02:48;;;;;;;18.65;12.25;;;;;;;11.13;87.02;99399.09;4903325;28;20050;-74
2023/08/26 01:05:13;;;;;;;24.13;12.38;;;;;;;11.13;87.32;99362.59;4936613;28;20138;-75
2023/08/26 01:07:39;;;;;;;21.30;13.85;;;;;;;11.12;87.56;99360.03;4904459;28;20055;-75
2023/08/26 01:10:05;;;;;;;21.92;12.13;;;;;;;11.19;86.45;99378.09;4920053;28;20437;-72
2023/08/26 01:12:52;;;;;;;24.67;13.20;;;;;;;11.26;86.70;99362.47;4916269;29;20051;-72
2023/08/26 01:15:18;;;;;;;27.73;12.63;;;;;;;11.19;86.75;99363.91;4885127;29;20051;-70
2023/08/26 01:17:46;;;;;;;22.20;13.93;;;;;;;11.18;86.77;99355.06;4917816;29;20402;-71
2023/08/26 01:20:12;;;;;;;24.95;12.85;;;;;;;11.18;86.67;99355.06;4929848;28;20042;-74
2023/08/26 01:22:41;;;;;;;17.85;11.38;;;;;;;11.19;87.00;99307.88;4936724;28;20038;-72
2023/08/26 01:25:07;;;;;;;23.80;14.77;;;;;;;11.19;86.89;99382.59;4935727;28;20506;-71
2023/08/26 01:27:33;;;;;;;26.80;13.32;;;;;;;11.18;86.90;99354.19;4936594;28;20038;-71
2023/08/26 01:29:58;;;;;;;25.42;13.35;;;;;;;11.18;87.01;99362.22;4919745;28;20046;-74
2023/08/26 01:32:33;;;;;;;19.20;13.10;;;;;;;11.21;87.37;99360.16;4935467;28;20046;-70
2023/08/26 01:34:59;;;;;;;24.80;11.63;;;;;;;11.21;86.62;99370.81;4936545;28;20054;-74
2023/08/26 01:37:29;;;;;;;25.23;12.90;;;;;;;11.25;86.59;99355.44;4888271;28;20501;-73
2023/08/26 01:39:58;;;;;;;32.17;14.38;;;;;;;11.29;86.88;99368.41;4935628;28;20513;-73
2023/08/26 01:42:25;;;;;;;23.52;13.10;;;;;;;11.25;86.73;99361.63;4937023;28;20038;-78
2023/08/26 01:44:51;;;;;;;31.50;14.35;;;;;;;11.21;86.41;99365.50;4921632;28;20049;-77
2023/08/26 01:47:16;;;;;;;28.92;12.48;;;;;;;11.20;86.43;99363.78;4890065;28;20078;-77
2023/08/26 01:49:43;;;;;;;19.85;12.98;;;;;;;11.15;86.30;99366.00;4921898;28;20395;-77
2023/08/26 01:52:09;;;;;;;18.15;11.80;;;;;;;11.13;86.57;99388.41;4921761;28;20059;-77
2023/08/26 01:54:35;;;;;;;20.83;12.02;;;;;;;11.14;86.53;99352.75;4919809;28;20128;-76
2023/08/26 01:57:00;;;;;;;26.05;12.15;;;;;;;11.12;86.75;99360.88;4919492;28;20050;-74
2023/08/26 01:59:25;;;;;;;24.27;13.07;;;;;;;11.11;87.07;99353.84;4919201;28;20417;-75
2023/08/26 02:01:51;;;;;;;26.45;13.60;;;;;;;11.09;86.80;99365.59;4920008;28;20386;-77
2023/08/26 02:04:17;;;;;;;22.95;12.68;;;;;;;11.07;86.74;99363.03;4920643;28;20050;-78
2023/08/26 02:06:42;;;;;;;22.58;11.88;;;;;;;11.06;86.75;99393.34;4920051;28;20050;-82
2023/08/26 02:09:07;;;;;;;21.55;13.52;;;;;;;11.03;86.78;99388.28;4924721;28;20066;-79
2023/08/26 02:11:33;;;;;;;24.13;12.30;;;;;;;11.04;86.44;99362.47;4924437;28;20058;-79
2023/08/26 02:13:58;;;;;;;23.15;12.00;;;;;;;11.06;86.82;99371.19;4928363;28;20054;-79
2023/08/26 02:16:24;;;;;;;19.83;12.75;;;;;;;11.05;87.23;99381.00;4942300;28;20802;-79
2023/08/26 02:18:49;;;;;;;24.58;12.63;;;;;;;11.05;86.95;99375.69;4925295;28;20049;-80
2023/08/26 02:21:14;;;;;;;23.55;13.23;;;;;;;11.03;87.46;99377.59;4918048;29;20047;-75
2023/08/26 02:23:40;;;;;;;20.67;12.20;;;;;;;11.03;87.29;99366.94;4927470;28;20505;-73
2023/08/26 02:26:05;;;;;;;22.63;12.70;;;;;;;11.00;86.89;99358.31;4914746;28;20043;-76
2023/08/26 02:28:31;;;;;;;18.38;12.25;;;;;;;11.01;87.39;99394.69;4890951;28;20047;-75
2023/08/26 02:30:56;;;;;;;21.70;11.95;;;;;;;11.01;87.63;99384.88;4938670;28;20425;-75
2023/08/26 02:33:22;;;;;;;21.23;12.65;;;;;;;11.03;87.23;99382.94;4890999;29;20050;-75
2023/08/26 02:35:49;;;;;;;26.50;11.95;;;;;;;11.08;87.25;99367.41;4898260;28;20058;-72
2023/08/26 02:38:14;;;;;;;19.38;11.70;;;;;;;11.08;87.04;99375.41;4921019;28;20051;-72
2023/08/26 02:40:40;;;;;;;19.85;11.32;;;;;;;11.09;86.52;99370.94;4906575;28;20058;-73
2023/08/26 02:43:05;;;;;;;23.08;12.07;;;;;;;11.13;86.48;99359.91;4922481;28;20054;-72
2023/08/26 02:45:31;;;;;;;19.60;11.75;;;;;;;11.15;86.58;99367.81;4939472;28;20042;-71
2023/08/26 02:47:57;;;;;;;22.38;11.88;;;;;;;11.19;86.41;99351.41;4939505;28;20058;-71
2023/08/26 02:50:24;;;;;;;12.98;8.88;;;;;;;11.27;86.08;99365.03;4921580;28;20065;-75
2023/08/26 02:52:49;;;;;;;15.65;9.25;;;;;;;11.39;84.60;99367.69;4940665;28;20050;-71
2023/08/26 02:55:14;;;;;;;13.88;8.85;;;;;;;11.50;84.09;99365.03;4923933;28;20043;-75
2023/08/26 02:57:40;;;;;;;18.00;10.10;;;;;;;11.60;83.02;99339.28;4939211;28;20409;-75
2023/08/26 03:00:05;;;;;;;17.90;9.85;;;;;;;11.67;82.48;99364.50;4920078;29;20526;-76
2023/08/26 03:02:34;;;;;;;18.52;10.38;;;;;;;11.80;82.48;99383.09;4933584;28;20051;-75
2023/08/26 03:04:59;;;;;;;18.23;9.77;;;;;;;11.92;82.22;99361.59;4922405;28;20054;-74
2023/08/26 03:07:24;;;;;;;18.48;10.35;;;;;;;12.03;81.38;99367.88;4923174;28;20061;-74
2023/08/26 03:09:49;;;;;;;16.45;11.57;;;;;;;12.16;80.81;99368.56;4909119;28;20054;-73
2023/08/26 03:12:14;;;;;;;19.02;10.25;;;;;;;12.30;80.25;99371.78;4909760;28;20495;-75
2023/08/26 03:14:40;;;;;;;17.85;9.45;;;;;;;12.39;79.92;99375.53;4904005;28;20502;-71
2023/08/26 03:17:05;;;;;;;21.73;9.63;;;;;;;12.49;79.28;99383.63;4915245;28;20046;-73
2023/08/26 03:19:31;;;;;;;22.90;10.27;;;;;;;12.59;78.70;99377.41;4923338;28;20047;-77
2023/08/26 03:21:57;;;;;;;15.90;10.52;;;;;;;12.77;77.90;99374.13;4902413;29;20054;-76
2023/08/26 03:24:23;;;;;;;15.40;9.45;;;;;;;12.90;77.67;99397.03;4902638;29;20054;-75
2023/08/26 03:26:49;;;;;;;16.40;8.90;;;;;;;13.01;77.24;99377.41;4917694;28;20057;-75
2023/08/26 03:29:14;;;;;;;21.98;10.80;;;;;;;13.11;76.38;99378.28;4919212;28;20043;-78
2023/08/26 03:31:42;;;;;;;17.52;9.93;;;;;;;13.18;76.07;99368.81;4921529;28;20050;-78
2023/08/26 03:34:08;;;;;;;17.13;10.85;;;;;;;13.24;75.06;99368.25;4935904;28;20043;-77
2023/08/26 03:36:33;;;;;;;23.48;10.65;;;;;;;13.25;74.63;99369.13;4914373;28;20051;-79
2023/08/26 03:38:58;;;;;;;19.17;10.48;;;;;;;13.21;74.33;99400.66;4900461;29;20062;-77
2023/08/26 03:41:24;;;;;;;16.50;11.13;;;;;;;13.17;74.21;99377.81;4903985;29;20055;-76
2023/08/26 03:43:49;;;;;;;22.25;10.20;;;;;;;13.17;74.53;99376.97;4902377;29;20044;-78
2023/08/26 03:46:14;;;;;;;21.60;10.00;;;;;;;13.25;74.70;99382.50;4901615;29;20051;-75
2023/08/26 03:48:40;;;;;;;16.05;9.77;;;;;;;13.39;74.56;99366.94;4904461;29;20058;-75
2023/08/26 03:51:05;;;;;;;17.05;9.00;;;;;;;13.57;73.84;99358.25;4889308;29;20051;-75
2023/08/26 03:53:30;;;;;;;17.60;9.75;;;;;;;13.62;72.90;99366.75;4904302;29;20074;-74
2023/08/26 03:55:56;;;;;;;20.95;9.88;;;;;;;13.68;72.93;99371.53;4914513;29;20051;-77
2023/08/26 03:58:21;;;;;;;16.25;10.10;;;;;;;13.78;72.81;99351.84;4878068;29;20057;-77
2023/08/26 04:00:47;;;;;;;17.98;9.43;;;;;;;13.86;72.77;99363.72;4905358;29;20047;-79
2023/08/26 04:03:12;;;;;;;18.98;10.70;;;;;;;13.90;72.53;99354.41;4904185;29;20051;-77
2023/08/26 04:05:39;;;;;;;14.23;9.23;;;;;;;13.96;72.10;99309.16;4920792;29;20414;-78
2023/08/26 04:08:04;;;;;;;18.00;10.32;;;;;;;14.02;71.66;99327.34;4903733;29;20050;-78
2023/08/26 04:10:30;;;;;;;20.58;10.52;;;;;;;14.10;72.06;99359.69;4903784;29;20063;-77
2023/08/26 04:13:20;;;;;;;15.93;8.82;;;;;;;14.35;71.05;99360.13;4903573;29;20498;-78
2023/08/26 04:15:45;;;;;;;14.48;8.60;;;;;;;14.55;70.70;99355.66;4873099;29;20430;-78
2023/08/26 04:18:13;;;;;;;16.60;9.45;;;;;;;14.80;69.75;99355.91;4903802;29;20058;-79
2023/08/26 04:20:38;;;;;;;14.90;8.80;;;;;;;15.02;69.16;99335.09;4902799;29;20067;-78
2023/08/26 04:23:04;;;;;;;22.75;10.02;;;;;;;15.15;68.32;99344.53;4903899;29;20043;-75
2023/08/26 04:25:29;;;;;;;20.45;9.68;;;;;;;15.52;67.32;99357.13;4902886;29;20081;-77
2023/08/26 04:27:54;;;;;;;19.38;9.80;;;;;;;16.01;66.29;99352.38;4869479;29;20055;-75
2023/08/26 04:30:20;;;;;;;12.10;8.82;;;;;;;16.44;64.86;99343.56;4916520;29;20042;-76
2023/08/26 04:32:47;;;;;;;20.30;11.07;;;;;;;16.59;63.66;99342.84;4902949;29;20051;-75
2023/08/26 04:35:13;;;;;;;17.83;10.70;;;;;;;16.57;62.94;99344.88;4887557;29;20441;-75
2023/08/26 04:37:39;;;;;;;19.48;10.23;;;;;;;16.54;62.85;99338.94;4926791;28;20055;-77
2023/08/26 04:40:12;;;;;;;18.10;10.68;;;;;;;16.65;62.52;99336.91;4924214;28;20422;-76
2023/08/26 04:42:39;;;;;;;16.35;9.07;;;;;;;17.01;61.72;99331.44;4921717;28;20057;-77
2023/08/26 04:45:05;;;;;;;13.20;7.80;;;;;;;17.32;60.82;99346.13;4921844;28;20425;-77
2023/08/26 04:47:30;;;;;;;15.23;8.18;;;;;;;17.61;60.07;99299.91;4890024;28;20050;-77
2023/08/26 04:49:56;;;;;;;14.10;9.15;;;;;;;17.83;58.96;99327.34;4921934;28;20057;-76
2023/08/26 04:52:21;;;;;;;11.90;7.88;;;;;;;17.94;58.48;99333.28;4905974;28;20057;-76
2023/08/26 04:54:46;;;;;;;16.10;8.00;;;;;;;18.12;58.43;99311.56;4920223;28;20414;-77
2023/08/26 04:57:12;;;;;;;16.35;8.52;;;;;;;18.31;57.54;99323.91;4920230;28;20592;-76
2023/08/26 04:59:37;;;;;;;17.00;8.55;;;;;;;18.46;57.14;99330.34;4921891;28;20054;-78
2023/08/26 05:02:04;;;;;;;17.85;8.25;;;;;;;18.51;56.58;99323.41;4921064;28;20050;-77
2023/08/26 05:04:29;;;;;;;14.57;8.25;;;;;;;18.43;56.56;99347.72;4923868;28;20051;-76
2023/08/26 05:06:54;;;;;;;11.80;7.47;;;;;;;18.37;56.98;99326.81;4941935;28;20042;-79
2023/08/26 05:09:19;;;;;;;9.32;7.38;;;;;;;18.24;56.80;99315.66;4924472;28;20055;-77
2023/08/26 05:11:45;;;;;;;12.68;6.95;;;;;;;18.13;56.94;99324.06;4921822;28;20401;-78
2023/08/26 05:14:10;;;;;;;11.30;6.50;;;;;;;18.06;56.90;99321.16;4905044;28;20054;-78
2023/08/26 05:16:35;;;;;;;8.70;6.13;;;;;;;17.99;56.38;99317.44;4921450;28;20046;-77
2023/08/26 05:19:01;;;;;;;8.45;6.28;;;;;;;17.86;56.99;99310.81;4921441;28;20062;-76
2023/08/26 05:21:26;;;;;;;9.63;5.97;;;;;;;17.76;57.00;99316.34;4936814;28;20050;-75
2023/08/26 05:23:51;;;;;;;9.43;6.82;;;;;;;17.72;57.39;99336.56;4936933;28;20050;-76
2023/08/26 05:26:16;;;;;;;8.98;5.72;;;;;;;17.66;57.04;99316.50;4905010;28;20068;-78
2023/08/26 05:28:42;;;;;;;7.35;5.72;;;;;;;17.60;57.21;99300.94;4905621;28;20062;-77
2023/08/26 05:31:07;;;;;;;8.45;5.55;;;;;;;17.58;57.43;99308.34;4937657;28;20046;-77
2023/08/26 05:33:32;;;;;;;8.65;5.30;;;;;;;17.53;57.69;99320.59;4905289;28;20425;-76
2023/08/26 05:35:58;;;;;;;7.50;5.28;;;;;;;17.36;57.83;99341.25;4936324;28;20429;-76
2023/08/26 05:38:23;;;;;;;11.48;5.57;;;;;;;17.27;58.19;99326.03;4920681;28;20062;-75
2023/08/26 05:40:48;;;;;;;9.65;5.60;;;;;;;17.28;58.63;99307.00;4937361;28;20047;-76
2023/08/26 05:43:13;;;;;;;7.35;5.15;;;;;;;17.25;58.35;99312.75;4921552;28;20046;-78
2023/08/26 05:45:39;;;;;;;8.00;4.97;;;;;;;17.20;58.24;99308.81;4928397;28;20054;-78
2023/08/26 05:48:05;;;;;;;8.65;5.90;;;;;;;17.20;58.63;99315.06;4924613;28;20050;-79
2023/08/26 05:50:31;;;;;;;8.02;5.15;;;;;;;17.27;58.31;99312.56;4941397;28;20050;-79
2023/08/26 05:52:56;;;;;;;8.10;4.65;;;;;;;17.36;58.63;99309.78;4941641;28;20394;-79
2023/08/26 05:55:21;;;;;;;6.60;4.47;;;;;;;17.42;58.05;99302.88;4924302;28;20508;-79
2023/08/26 05:57:46;;;;;;;8.30;5.65;;;;;;;17.62;57.95;99314.25;4941365;28;20046;-78
2023/08/26 06:00:13;;;;;;;7.07;5.10;;;;;;;17.75;57.84;99310.13;4921172;28;20065;-78
2023/08/26 06:02:42;;;;;;;10.90;5.40;;;;;;;17.98;57.28;99304.97;4921732;28;20055;-78
2023/08/26 06:05:09;;;;;;;15.18;5.40;;;;;;;18.23;56.64;99292.38;4905682;28;20050;-79
2023/08/26 06:07:36;;;;;;;7.38;4.88;;;;;;;18.41;56.21;99327.28;4921287;28;20051;-78
2023/08/26 06:10:01;;;;;;;10.52;5.35;;;;;;;18.64;55.58;99319.41;4922621;28;20055;-78
2023/08/26 06:12:29;;;;;;;7.45;5.15;;;;;;;18.95;55.48;99303.38;4937323;28;20065;-77
2023/08/26 06:14:54;;;;;;;9.48;5.43;;;;;;;19.24;54.65;99260.38;4935821;28;20061;-77
2023/08/26 06:17:20;;;;;;;9.23;5.50;;;;;;;19.57;54.09;99299.00;4916777;28;20062;-77
2023/08/26 06:19:45;;;;;;;12.43;6.45;;;;;;;19.93;53.38;99327.22;4937389;28;20050;-77
2023/08/26 06:22:10;;;;;;;9.27;6.15;;;;;;;20.12;52.57;99298.88;4904462;28;20054;-77
2023/08/26 06:24:35;;;;;;;9.93;5.53;;;;;;;20.35;51.61;99315.16;4937042;28;20039;-77
2023/08/26 06:27:01;;;;;;;9.75;5.70;;;;;;;20.74;50.75;99297.94;4921376;28;20054;-77
2023/08/26 06:29:26;;;;;;;10.10;5.65;;;;;;;21.39;49.75;99287.28;4920382;28;20051;-78
2023/08/26 06:31:52;;;;;;;6.70;4.82;;;;;;;22.04;48.21;99281.88;4905219;28;20057;-78
2023/08/26 06:34:18;;;;;;;7.05;4.82;;;;;;;22.46;46.80;99269.34;4904885;28;20058;-78
2023/08/26 06:36:45;;;;;;;8.25;5.50;;;;;;;22.46;46.17;99283.75;4920748;28;20055;-77
2023/08/26 06:39:12;;;;;;;7.15;4.60;;;;;;;22.16;45.87;99276.78;4936564;28;20054;-79
2023/08/26 06:41:37;;;;;;;6.85;4.47;;;;;;;21.79;46.96;99288.63;4938083;28;20053;-78
2023/08/26 06:44:04;;;;;;;7.78;5.20;;;;;;;21.59;47.52;99250.41;4921223;28;20049;-77
2023/08/26 06:46:31;;;;;;;10.02;4.93;;;;;;;21.53;47.77;99293.75;4936299;28;20042;-76
2023/08/26 06:48:58;;;;;;;5.95;4.80;;;;;;;21.42;48.08;99291.50;4903610;28;20057;-76
2023/08/26 06:51:24;;;;;;;8.27;4.80;;;;;;;21.38;48.02;99283.72;4903611;28;20059;-76
2023/08/26 06:53:50;;;;;;;7.65;4.85;;;;;;;21.67;47.36;99284.75;4936619;28;20046;-76
2023/08/26 06:56:15;;;;;;;10.55;5.50;;;;;;;22.69;45.64;99280.84;4920296;28;20051;-76
2023/08/26 06:58:41;;;;;;;6.93;4.50;;;;;;;23.93;43.35;99289.22;4939824;28;20035;-75
2023/08/26 07:01:06;;;;;;;5.68;4.70;;;;;;;24.91;41.32;99264.84;4923293;28;20050;-76
2023/08/26 07:03:31;;;;;;;7.00;4.75;;;;;;;25.04;40.36;99274.13;4941889;28;20046;-78
2023/08/26 07:05:56;;;;;;;7.20;4.50;;;;;;;24.88;40.57;99278.06;4923815;28;20058;-79
2023/08/26 07:08:22;;;;;;;6.25;4.25;;;;;;;24.55;39.47;99275.34;4924763;28;20391;-79
2023/08/26 07:10:47;;;;;;;5.25;4.18;;;;;;;24.32;39.71;99272.16;4908114;28;20054;-79
2023/08/26 07:13:13;;;;;;;5.53;3.92;;;;;;;24.15;39.99;99275.22;4923750;28;20052;-78
2023/08/26 07:15:38;;;;;;;4.72;4.10;;;;;;;23.79;41.01;99299.22;4940707;28;20046;-76
2023/08/26 07:18:04;;;;;;;6.15;3.97;;;;;;;23.25;41.72;99275.41;4940357;28;20097;-77
2023/08/26 07:20:29;;;;;;;8.32;4.07;;;;;;;22.67;42.02;99269.34;4924120;28;20426;-78
2023/08/26 07:22:55;;;;;;;6.90;4.47;;;;;;;21.91;42.87;99276.25;4941916;28;20390;-76
2023/08/26 07:25:21;;;;;;;7.55;3.70;;;;;;;21.37;44.47;99268.50;4939583;28;20054;-74
2023/08/26 07:27:46;;;;;;;5.82;4.03;;;;;;;20.99;45.42;99272.28;4908030;28;20042;-76
2023/08/26 07:30:12;;;;;;;6.00;4.10;;;;;;;20.60;46.38;99297.69;4923027;28;20051;-77
2023/08/26 07:32:37;;;;;;;6.13;4.10;;;;;;;20.37;46.87;99313.13;4941355;28;20053;-77
2023/08/26 07:35:04;;;;;;;7.15;4.10;;;;;;;20.18;48.13;99292.75;4939329;28;20047;-76
2023/08/26 07:37:29;;;;;;;7.40;4.30;;;;;;;19.99;48.56;99285.06;4939537;28;20055;-76
2023/08/26 07:39:55;;;;;;;9.07;5.35;;;;;;;19.80;49.15;99289.06;4941668;28;20050;-77
2023/08/26 07:42:20;;;;;;;6.70;4.88;;;;;;;19.63;49.53;99300.16;4923746;28;20050;-76
2023/08/26 07:44:46;;;;;;;6.50;4.05;;;;;;;19.49;49.52;99280.94;4940644;28;20053;-77
2023/08/26 07:47:11;;;;;;;6.80;5.03;;;;;;;19.53;50.26;99284.97;4922563;28;20050;-77
2023/08/26 07:49:36;;;;;;;7.10;4.50;;;;;;;19.63;50.12;99297.47;4923345;28;20047;-77
2023/08/26 07:52:05;;;;;;;8.60;4.88;;;;;;;19.64;50.67;99293.75;4941896;28;20043;-75
2023/08/26 07:54:30;;;;;;;7.57;4.55;;;;;;;19.57;50.16;99271.94;4891363;28;20055;-76
2023/08/26 07:56:56;;;;;;;7.35;4.45;;;;;;;19.49;50.64;99226.03;4923352;28;20051;-77
2023/08/26 07:59:21;;;;;;;5.85;4.35;;;;;;;19.44;51.23;99282.44;4942219;28;20051;-75
2023/08/26 08:01:47;;;;;;;6.90;4.47;;;;;;;19.40;51.30;99268.44;4941977;28;20046;-78
2023/08/26 08:04:12;;;;;;;7.60;5.22;;;;;;;19.41;51.50;99269.28;4906560;28;20054;-76
2023/08/26 08:06:38;;;;;;;7.38;4.43;;;;;;;19.41;52.17;99259.28;4924383;28;20383;-76
2023/08/26 08:09:03;;;;;;;5.90;4.53;;;;;;;19.38;52.40;99266.94;4922585;28;20050;-78
2023/08/26 08:11:28;;;;;;;6.50;4.40;;;;;;;19.32;52.75;99256.81;4916147;28;20055;-77
2023/08/26 08:13:53;;;;;;;8.70;5.22;;;;;;;19.27;53.01;99248.41;4943138;28;20058;-76
2023/08/26 08:16:19;;;;;;;7.00;4.70;;;;;;;19.22;52.99;99241.63;4907910;28;20046;-77
2023/08/26 08:18:44;;;;;;;9.45;5.22;;;;;;;19.17;53.37;99248.59;4906702;28;20452;-76
2023/08/26 08:21:09;;;;;;;6.82;5.20;;;;;;;19.09;53.91;99245.91;4922036;28;20058;-77
2023/08/26 08:23:36;;;;;;;9.18;4.97;;;;;;;18.99;54.06;99246.09;4921131;28;20057;-76
2023/08/26 08:26:01;;;;;;;6.43;4.40;;;;;;;18.92;55.08;99260.47;4937147;28;20055;-73
2023/08/26 08:28:26;;;;;;;6.75;4.65;;;;;;;18.82;55.71;99250.72;4920495;28;20051;-73
2023/08/26 08:30:51;;;;;;;7.70;4.15;;;;;;;18.81;55.56;99269.78;4905653;28;20062;-75
2023/08/26 08:33:16;;;;;;;8.63;4.65;;;;;;;18.69;56.65;99277.41;4938981;28;20053;-79
2023/08/26 08:35:42;;;;;;;11.20;5.03;;;;;;;18.62;57.06;99245.84;4939031;28;20039;-79
2023/08/26 08:38:07;;;;;;;7.25;5.10;;;;;;;18.47;57.19;99262.69;4939330;28;20061;-79
2023/08/26 08:40:32;;;;;;;6.65;4.75;;;;;;;18.40;57.01;99267.06;4939385;28;20043;-78
2023/08/26 08:42:58;;;;;;;7.47;4.93;;;;;;;18.26;57.75;99243.47;4940228;28;20045;-79
2023/08/26 08:45:25;;;;;;;6.85;4.68;;;;;;;18.08;58.75;99251.69;4939851;28;20058;-78
2023/08/26 08:47:52;;;;;;;9.32;4.55;;;;;;;18.04;59.04;99244.13;4923469;28;20043;-77
2023/08/26 08:50:18;;;;;;;6.63;4.50;;;;;;;17.98;59.79;99247.47;4922930;28;20051;-77
2023/08/26 08:52:44;;;;;;;8.55;4.43;;;;;;;18.02;60.79;99247.00;4940007;28;20046;-80
2023/08/26 08:55:10;;;;;;;8.10;4.47;;;;;;;18.05;59.70;99243.13;4938928;28;20057;-79
2023/08/26 08:57:35;;;;;;;7.18;4.53;;;;;;;18.04;60.24;99234.19;4904711;28;20050;-78
2023/08/26 09:00:03;;;;;;;5.97;3.92;;;;;;;18.09;59.39;99242.59;4920522;28;20058;-79
2023/08/26 09:02:39;;;;;;;5.43;4.28;;;;;;;18.11;59.70;99256.78;4937597;28;20408;-75
2023/08/26 09:05:05;;;;;;;5.03;3.72;;;;;;;18.10;60.02;99246.16;4919301;28;20054;-76
2023/08/26 09:07:30;;;;;;;8.90;4.07;;;;;;;18.04;59.74;99234.19;4903751;28;20445;-74
2023/08/26 09:09:59;;;;;;;4.28;3.72;;;;;;;18.05;59.84;99235.03;4937395;28;20046;-74
2023/08/26 09:12:24;;;;;;;4.55;3.47;;;;;;;18.02;59.06;99230.81;4935981;28;20054;-74
2023/08/26 09:14:49;;;;;;;5.40;3.90;;;;;;;17.89;59.00;99229.59;4937095;28;20038;-75
2023/08/26 09:17:16;;;;;;;7.63;4.10;;;;;;;17.83;59.13;99243.75;4919911;28;20055;-79
2023/08/26 09:19:55;;;;;;;5.40;3.90;;;;;;;17.83;60.07;99246.47;4919778;28;20054;-78
2023/08/26 09:22:39;;;;;;;4.13;3.60;;;;;;;17.85;60.29;99239.00;4937737;28;20050;-77
2023/08/26 09:25:05;;;;;;;6.32;4.05;;;;;;;17.85;59.86;99244.41;4921599;28;20047;-78
2023/08/26 09:27:42;;;;;;;6.85;4.40;;;;;;;17.92;60.04;99256.25;4919820;28;20053;-76
2023/08/26 09:30:08;;;;;;;7.85;4.18;;;;;;;17.78;59.96;99238.84;4936087;28;20046;-74
2023/08/26 09:32:35;;;;;;;10.43;4.47;;;;;;;17.72;60.06;99239.50;4919911;28;20050;-75
2023/08/26 09:35:15;;;;;;;4.53;3.70;;;;;;;17.53;60.44;99234.34;4937145;28;20762;-77
2023/08/26 09:37:42;;;;;;;6.30;3.85;;;;;;;17.40;60.48;99251.00;4921490;28;20055;-79
2023/08/26 09:40:18;;;;;;;7.00;3.60;;;;;;;17.36;61.19;99247.78;4906147;28;20050;-81
2023/08/26 09:42:44;;;;;;;7.50;3.60;;;;;;;17.30;60.69;99234.09;4906395;28;20046;-79
2023/08/26 09:45:10;;;;;;;7.32;4.47;;;;;;;17.27;60.90;99229.88;4920727;28;20053;-81
2023/08/26 09:47:37;;;;;;;5.65;4.22;;;;;;;17.20;61.50;99228.00;4921210;28;20047;-80
2023/08/26 09:50:05;;;;;;;5.43;4.20;;;;;;;17.12;61.84;99252.22;4921492;28;20062;-78
2023/08/26 09:52:41;;;;;;;5.30;4.10;;;;;;;17.09;62.70;99223.75;4922501;28;20105;-79
2023/08/26 09:55:07;;;;;;;6.22;4.18;;;;;;;16.89;63.13;99184.63;4938868;28;20516;-78
2023/08/26 09:57:33;;;;;;;8.23;4.10;;;;;;;16.85;63.50;99262.16;4922328;28;20042;-77
2023/08/26 09:59:58;;;;;;;9.57;4.30;;;;;;;16.81;62.85;99243.81;4938994;28;20039;-77
2023/08/26 10:02:24;;;;;;;7.82;4.53;;;;;;;16.76;63.79;99252.34;4904915;28;20054;-79
2023/08/26 10:04:56;;;;;;;8.43;4.82;;;;;;;16.80;63.80;99242.97;4938441;28;20696;-80
2023/08/26 10:07:23;;;;;;;9.82;4.85;;;;;;;16.83;63.13;99241.78;4919809;28;20062;-75
2023/08/26 10:10:07;;;;;;;7.38;4.75;;;;;;;16.89;63.15;99246.53;4919612;28;20501;-77
2023/08/26 10:12:40;;;;;;;6.22;3.85;;;;;;;16.80;63.05;99251.03;4929423;28;20094;-78
2023/08/26 10:15:08;;;;;;;6.78;4.70;;;;;;;16.71;63.57;99241.19;4919900;28;20043;-77
2023/08/26 10:17:36;;;;;;;7.07;5.28;;;;;;;16.69;64.44;99235.16;4932407;28;20049;-78
2023/08/26 10:20:02;;;;;;;7.88;5.03;;;;;;;16.69;64.28;99238.69;4932122;28;20055;-77
2023/08/26 10:22:29;;;;;;;8.80;5.30;;;;;;;16.63;65.12;99225.00;4923080;28;20055;-79
2023/08/26 10:24:58;;;;;;;9.40;4.90;;;;;;;16.55;65.29;99233.00;4916316;28;20043;-77
2023/08/26 10:27:23;;;;;;;7.07;5.18;;;;;;;16.58;65.20;99238.91;4924379;28;20039;-77
2023/08/26 10:29:49;;;;;;;7.10;5.00;;;;;;;16.56;65.42;99229.31;4904883;28;20091;-77
2023/08/26 10:32:19;;;;;;;8.65;5.20;;;;;;;16.57;65.80;99241.75;4923030;28;20055;-79
2023/08/26 10:34:56;;;;;;;6.65;5.28;;;;;;;16.51;66.17;99231.63;4921497;28;20128;-77
2023/08/26 10:37:33;;;;;;;8.00;5.22;;;;;;;16.34;67.02;99242.25;4919919;28;20067;-77
2023/08/26 10:40:11;;;;;;;7.22;5.32;;;;;;;16.43;66.94;99227.03;4936974;28;20043;-77
2023/08/26 10:42:37;;;;;;;8.02;4.97;;;;;;;16.31;66.72;99221.06;4938089;28;20382;-79
2023/08/26 10:45:12;;;;;;;7.28;5.50;;;;;;;16.24;66.94;99203.84;4895617;28;20057;-77
2023/08/26 10:47:40;;;;;;;11.55;5.47;;;;;;;16.16;67.43;99237.88;4922502;28;20047;-77
2023/08/26 10:50:22;;;;;;;7.07;5.00;;;;;;;16.13;69.83;99217.56;4940003;28;20046;-76
2023/08/26 10:53:13;;;;;;;8.45;5.43;;;;;;;16.10;70.86;99215.16;4921673;28;20038;-76
2023/08/26 10:55:38;;;;;;;14.77;5.20;;;;;;;16.14;69.32;99219.22;4938029;28;20043;-76
2023/08/26 10:58:06;;;;;;;7.25;5.38;;;;;;;16.11;69.57;99230.31;4927181;28;20560;-79
2023/08/26 11:00:32;;;;;;;6.32;4.78;;;;;;;16.11;69.25;99219.53;4930184;28;20043;-77
2023/08/26 11:02:59;;;;;;;6.32;4.90;;;;;;;16.01;69.71;99224.16;4940735;28;20062;-79
2023/08/26 11:05:25;;;;;;;5.38;4.55;;;;;;;16.10;69.15;99215.16;4923190;28;20497;-78
2023/08/26 11:07:50;;;;;;;9.20;5.20;;;;;;;15.95;70.12;99206.78;4930471;28;20389;-79
2023/08/26 11:10:30;;;;;;;6.55;4.65;;;;;;;16.08;69.73;99202.88;4944207;28;20026;-77
2023/08/26 11:12:55;;;;;;;7.38;5.40;;;;;;;15.91;70.27;99201.91;4931708;28;20041;-79
2023/08/26 11:15:21;;;;;;;6.88;4.93;;;;;;;16.03;70.32;99205.19;4942026;28;20042;-81
2023/08/26 11:17:48;;;;;;;6.05;4.30;;;;;;;15.97;71.35;99196.72;4902514;29;20144;-76
2023/08/26 11:20:16;;;;;;;6.93;4.70;;;;;;;16.09;70.75;99210.78;4897504;29;20051;-75
2023/08/26 11:22:41;;;;;;;6.00;4.40;;;;;;;16.15;70.29;99198.53;4924648;29;20062;-75
2023/08/26 11:25:07;;;;;;;6.78;5.55;;;;;;;16.19;70.56;99205.31;4921829;28;20054;-75